Time;durP1;ratioP1;P1;durP2;ratioP2;P2;SDS_P1;SDS_P2;PMS_P1;PMS_P2;Temp;Humidity;BMP_temperature;BMP_pressure;BME280_temperature;BME280_humidity;BME280_pressure;Samples;Min_cycle;Max_cycle;Signal;HPM_P1;HPM_P2
2023/06/22 00:01:16;;;;;;;5.97;4.70;;;;;;;17.80;100.00;102016.06;5023916;28;20516;-72
2023/06/22 00:03:41;;;;;;;4.17;3.70;;;;;;;17.78;100.00;102012.63;5031401;28;20769;-72
2023/06/22 00:06:07;;;;;;;5.17;4.33;;;;;;;17.73;100.00;102012.56;5025030;28;20588;-72
2023/06/22 00:08:32;;;;;;;6.97;4.73;;;;;;;17.76;100.00;102012.59;5029997;28;20197;-72
2023/06/22 00:10:58;;;;;;;5.80;4.40;;;;;;;17.75;100.00;102008.28;5021380;28;20280;-72
2023/06/22 00:13:23;;;;;;;5.47;3.73;;;;;;;17.72;100.00;102005.63;5029110;28;20349;-72
2023/06/22 00:15:48;;;;;;;4.60;4.20;;;;;;;17.75;100.00;102010.88;5024590;28;20228;-72
2023/06/22 00:18:15;;;;;;;5.93;4.20;;;;;;;17.74;100.00;102003.91;5022585;28;20298;-72
2023/06/22 00:20:41;;;;;;;5.27;4.77;;;;;;;17.75;100.00;102004.78;5027793;28;20202;-72
2023/06/22 00:23:08;;;;;;;5.67;4.47;;;;;;;17.72;100.00;102005.63;5029496;28;20219;-72
2023/06/22 00:25:40;;;;;;;5.37;4.50;;;;;;;17.73;100.00;102006.53;5032227;28;20229;-72
2023/06/22 00:28:05;;;;;;;7.13;4.90;;;;;;;17.68;100.00;102003.03;5028460;28;20198;-72
2023/06/22 00:30:34;;;;;;;6.73;4.80;;;;;;;17.67;100.00;102003.84;5034440;28;20199;-72
2023/06/22 00:33:00;;;;;;;5.17;4.63;;;;;;;17.67;100.00;101993.50;5029838;28;20219;-72
2023/06/22 00:35:28;;;;;;;7.63;4.73;;;;;;;17.63;100.00;101994.31;5036174;28;20229;-72
2023/06/22 00:38:03;;;;;;;9.30;5.30;;;;;;;17.63;100.00;102002.09;5043989;28;20289;-72
2023/06/22 00:40:30;;;;;;;5.93;5.33;;;;;;;17.63;100.00;102008.16;5031033;28;20233;-72
2023/06/22 00:42:57;;;;;;;5.77;4.70;;;;;;;17.55;100.00;102021.88;5026101;28;20634;-72
2023/06/22 00:45:23;;;;;;;5.73;4.30;;;;;;;17.53;100.00;102019.28;5016437;28;20589;-72
2023/06/22 00:47:55;;;;;;;5.60;4.47;;;;;;;17.58;100.00;102120.34;5025517;28;20197;-72
2023/06/22 00:50:22;;;;;;;5.07;4.57;;;;;;;17.53;100.00;102018.41;5036291;28;20242;-72
2023/06/22 00:52:51;;;;;;;5.03;4.53;;;;;;;17.52;100.00;102021.84;5044521;28;20221;-72
2023/06/22 00:55:17;;;;;;;5.63;4.87;;;;;;;17.49;100.00;102024.41;5045402;28;20222;-72
2023/06/22 00:57:46;;;;;;;6.80;4.93;;;;;;;17.54;100.00;102022.75;5022036;28;20209;-72
2023/06/22 01:00:17;;;;;;;6.30;4.63;;;;;;;17.52;100.00;102019.25;5023138;28;20248;-72
2023/06/22 01:02:45;;;;;;;5.40;4.90;;;;;;;17.50;100.00;102010.63;5027133;28;20221;-72
2023/06/22 01:05:13;;;;;;;5.93;5.27;;;;;;;17.51;100.00;102025.28;5037760;28;20305;-72
2023/06/22 01:08:05;;;;;;;4.97;4.47;;;;;;;17.47;100.00;102010.56;5040996;28;20201;-72
2023/06/22 01:10:37;;;;;;;7.77;4.70;;;;;;;17.42;100.00;102014.84;5028836;28;20249;-72
2023/06/22 01:13:14;;;;;;;6.53;5.00;;;;;;;17.40;100.00;102020.00;5031147;28;20305;-72
2023/06/22 01:15:46;;;;;;;6.50;4.43;;;;;;;17.37;100.00;102019.06;5027558;28;20588;-72
2023/06/22 01:18:14;;;;;;;4.90;4.40;;;;;;;17.35;100.00;102026.81;5038773;28;20253;-72
2023/06/22 01:20:41;;;;;;;6.50;4.57;;;;;;;17.31;100.00;102022.47;5040716;28;20193;-72
2023/06/22 01:23:25;;;;;;;6.60;4.87;;;;;;;17.26;100.00;102024.13;5022380;28;20215;-72
2023/06/22 01:26:18;;;;;;;5.83;4.30;;;;;;;17.23;100.00;102010.28;5020090;28;20209;-72
2023/06/22 01:28:48;;;;;;;6.77;4.80;;;;;;;17.19;100.00;102021.47;5042207;28;20557;-72
2023/06/22 01:31:17;;;;;;;6.83;4.70;;;;;;;17.16;100.00;102016.22;5028151;28;20209;-72
2023/06/22 01:33:46;;;;;;;4.80;4.40;;;;;;;17.14;100.00;102012.78;5023877;28;20190;-73
2023/06/22 01:36:14;;;;;;;5.23;4.73;;;;;;;17.13;100.00;102011.88;5034124;28;20214;-72
2023/06/22 01:38:39;;;;;;;6.20;4.67;;;;;;;17.11;100.00;102002.38;5033017;28;20189;-72
2023/06/22 01:41:05;;;;;;;6.47;5.30;;;;;;;17.08;100.00;102005.78;5025777;28;20202;-72
2023/06/22 01:43:32;;;;;;;6.20;5.13;;;;;;;17.05;100.00;102008.38;5028389;28;20198;-72
2023/06/22 01:46:01;;;;;;;5.90;4.90;;;;;;;17.02;100.00;102010.03;5037711;28;20218;-72
2023/06/22 01:48:27;;;;;;;6.13;5.53;;;;;;;17.03;100.00;102007.47;5025097;28;20201;-72
2023/06/22 01:50:53;;;;;;;5.60;4.87;;;;;;;16.99;100.00;102002.25;5027923;28;20237;-72
2023/06/22 01:53:22;;;;;;;6.70;4.73;;;;;;;16.95;100.00;102011.66;5021065;28;20229;-72
2023/06/22 01:55:51;;;;;;;5.97;4.83;;;;;;;17.01;100.00;102005.72;5029762;28;20244;-72
2023/06/22 01:58:16;;;;;;;4.93;4.43;;;;;;;17.01;100.00;101996.25;5029474;28;20229;-72
2023/06/22 02:00:51;;;;;;;5.87;4.73;;;;;;;16.98;100.00;101998.78;5040028;28;20201;-72
2023/06/22 02:03:21;;;;;;;5.37;4.97;;;;;;;16.92;100.00;102003.88;5028591;28;20194;-72
2023/06/22 02:05:54;;;;;;;6.73;4.77;;;;;;;16.89;100.00;102002.97;5028602;28;20344;-72
2023/06/22 02:08:29;;;;;;;5.80;4.90;;;;;;;16.87;100.00;102005.56;5039912;28;20218;-72
2023/06/22 02:11:00;;;;;;;5.07;4.57;;;;;;;16.86;100.00;101997.78;5028232;28;20938;-72
2023/06/22 02:13:27;;;;;;;7.30;4.90;;;;;;;16.83;100.00;101997.72;5033441;28;20292;-72
2023/06/22 02:15:53;;;;;;;6.57;4.67;;;;;;;16.76;100.00;101994.19;5033684;28;20211;-72
2023/06/22 02:18:20;;;;;;;6.63;4.83;;;;;;;16.76;100.00;102001.09;5026470;28;20329;-72
2023/06/22 02:20:46;;;;;;;5.53;4.97;;;;;;;16.72;100.00;102001.91;5029335;28;20210;-72
2023/06/22 02:23:11;;;;;;;6.83;5.30;;;;;;;16.73;100.00;101998.47;5047668;28;20187;-72
2023/06/22 02:25:37;;;;;;;5.43;4.83;;;;;;;16.70;100.00;102001.88;5037764;28;20772;-72
2023/06/22 02:28:03;;;;;;;8.03;5.03;;;;;;;16.69;100.00;101996.69;5015362;28;20202;-72
2023/06/22 02:30:29;;;;;;;5.83;5.20;;;;;;;16.67;100.00;101995.81;5039398;28;20190;-72
2023/06/22 02:32:58;;;;;;;7.30;5.10;;;;;;;16.61;100.00;101994.00;5030298;28;20784;-72
2023/06/22 02:35:26;;;;;;;5.80;5.20;;;;;;;16.55;100.00;101995.63;5022220;28;20210;-72
2023/06/22 02:37:51;;;;;;;5.60;5.00;;;;;;;16.55;100.00;101988.75;5042261;28;20193;-72
2023/06/22 02:40:17;;;;;;;6.00;5.17;;;;;;;16.55;100.00;101991.34;5049395;28;20648;-73
2023/06/22 02:42:43;;;;;;;5.57;5.07;;;;;;;16.52;100.00;101992.97;5032417;28;20182;-72
2023/06/22 02:45:09;;;;;;;5.90;4.73;;;;;;;16.50;100.00;101989.53;5033668;28;20214;-72
2023/06/22 02:47:34;;;;;;;7.37;5.13;;;;;;;16.49;100.00;101990.38;5033591;28;20220;-72
2023/06/22 02:50:01;;;;;;;6.00;5.33;;;;;;;16.49;100.00;101996.41;5026913;28;20672;-72
2023/06/22 02:52:26;;;;;;;5.10;4.57;;;;;;;16.48;100.00;101993.81;5023608;28;20214;-72
2023/06/22 02:54:52;;;;;;;8.60;5.17;;;;;;;16.48;100.00;101991.22;5038252;28;20220;-72
2023/06/22 02:57:18;;;;;;;6.20;5.43;;;;;;;16.45;100.00;101993.75;5048819;28;20194;-72
2023/06/22 02:59:43;;;;;;;6.07;5.47;;;;;;;16.42;100.00;102004.94;5035990;28;20726;-72
2023/06/22 03:02:11;;;;;;;7.57;5.13;;;;;;;16.38;100.00;101997.94;5028895;28;20210;-72
2023/06/22 03:04:37;;;;;;;6.10;5.50;;;;;;;16.39;100.00;101998.81;5042727;28;20221;-72
2023/06/22 03:07:03;;;;;;;5.83;5.23;;;;;;;16.37;100.00;102000.50;5039741;28;20689;-72
2023/06/22 03:09:30;;;;;;;6.27;5.03;;;;;;;16.35;100.00;101991.88;5032303;28;20194;-73
2023/06/22 03:11:56;;;;;;;6.20;5.23;;;;;;;16.34;100.00;101993.56;5034828;28;20233;-72
2023/06/22 03:14:26;;;;;;;5.70;5.10;;;;;;;16.26;100.00;101982.25;5047950;28;20195;-73
2023/06/22 03:16:52;;;;;;;5.00;4.47;;;;;;;16.34;100.00;101988.41;5031495;28;20190;-73
2023/06/22 03:19:19;;;;;;;7.43;4.93;;;;;;;16.40;100.00;101993.69;5027371;28;20888;-72
2023/06/22 03:21:44;;;;;;;6.20;5.13;;;;;;;16.38;100.00;101995.34;5034657;28;20193;-72
2023/06/22 03:24:11;;;;;;;5.87;5.27;;;;;;;16.38;100.00;102003.13;5035226;28;20265;-72
2023/06/22 03:26:37;;;;;;;6.43;4.97;;;;;;;16.32;100.00;102007.31;5030317;28;20221;-72
2023/06/22 03:29:03;;;;;;;7.20;5.07;;;;;;;16.37;100.00;102013.44;5031355;28;20612;-72
2023/06/22 03:31:30;;;;;;;8.47;5.80;;;;;;;16.38;100.00;102012.56;5031775;28;20569;-72
2023/06/22 03:33:56;;;;;;;7.93;5.47;;;;;;;16.39;100.00;102014.34;5027079;28;20206;-72
2023/06/22 03:36:22;;;;;;;7.70;6.13;;;;;;;16.44;100.00;102023.06;5024667;28;20219;-73
2023/06/22 03:38:49;;;;;;;6.27;5.63;;;;;;;16.45;100.00;102020.50;5048443;28;20562;-72
2023/06/22 03:41:16;;;;;;;9.17;6.10;;;;;;;16.47;100.00;102030.84;5049246;28;20202;-73
2023/06/22 03:43:42;;;;;;;6.60;5.90;;;;;;;16.52;100.00;102032.66;5035963;28;20279;-72
2023/06/22 03:46:07;;;;;;;7.53;5.53;;;;;;;16.55;100.00;102031.84;5018364;28;20309;-73
2023/06/22 03:48:33;;;;;;;7.47;5.40;;;;;;;16.62;100.00;102028.50;5031551;28;20214;-72
2023/06/22 03:51:03;;;;;;;6.97;5.17;;;;;;;16.64;100.00;102034.56;5039756;28;20210;-72
2023/06/22 03:53:29;;;;;;;5.70;5.07;;;;;;;16.68;100.00;102039.81;5025104;28;20219;-72
2023/06/22 03:55:56;;;;;;;6.60;5.50;;;;;;;16.75;100.00;102039.03;5036029;28;20570;-73
2023/06/22 03:58:21;;;;;;;7.07;5.67;;;;;;;16.78;100.00;102038.19;5037985;28;20618;-72
2023/06/22 04:00:48;;;;;;;6.00;5.40;;;;;;;16.86;100.00;102046.94;5032577;28;20186;-72
2023/06/22 04:03:14;;;;;;;7.20;5.60;;;;;;;16.94;100.00;102045.31;5027405;28;20209;-72
2023/06/22 04:05:40;;;;;;;6.17;5.57;;;;;;;16.97;100.00;102043.63;5026557;28;20233;-72
2023/06/22 04:08:06;;;;;;;6.17;5.57;;;;;;;17.03;100.00;102050.59;5021308;28;20264;-73
2023/06/22 04:10:31;;;;;;;6.80;5.67;;;;;;;17.10;100.00;102055.00;5037291;28;20199;-72
2023/06/22 04:12:57;;;;;;;6.37;5.00;;;;;;;17.15;100.00;102066.28;5036069;28;20570;-72
2023/06/22 04:15:22;;;;;;;5.47;4.83;;;;;;;17.23;100.00;102056.91;5031749;28;20594;-72
2023/06/22 04:17:48;;;;;;;8.80;5.30;;;;;;;17.29;100.00;102056.94;5028635;28;20214;-72
2023/06/22 04:20:14;;;;;;;6.73;6.00;;;;;;;17.34;100.00;102057.88;5024533;28;20253;-73
2023/06/22 04:22:39;;;;;;;5.50;5.00;;;;;;;17.37;100.00;102056.19;5024619;28;20612;-72
2023/06/22 04:25:07;;;;;;;6.07;5.47;;;;;;;17.42;100.00;102044.22;5032926;28;20645;-72
2023/06/22 04:27:36;;;;;;;7.27;5.13;;;;;;;17.49;100.00;102050.28;5032630;28;20206;-72
2023/06/22 04:30:02;;;;;;;8.73;5.40;;;;;;;17.56;100.00;102045.22;5032291;28;20198;-72
2023/06/22 04:32:28;;;;;;;8.27;5.77;;;;;;;17.63;100.00;102051.31;5030711;28;20249;-72
2023/06/22 04:34:53;;;;;;;7.17;5.43;;;;;;;17.71;100.00;102045.38;5021866;28;20254;-73
2023/06/22 04:37:19;;;;;;;8.40;5.30;;;;;;;17.74;100.00;102047.97;5023610;28;20237;-72
2023/06/22 04:39:44;;;;;;;8.37;6.27;;;;;;;17.76;100.00;102046.28;5030128;28;20247;-73
2023/06/22 04:42:10;;;;;;;7.87;6.40;;;;;;;17.76;100.00;102048.00;5023617;28;20278;-72
2023/06/22 04:44:35;;;;;;;6.50;5.23;;;;;;;17.82;100.00;102042.88;5028076;28;20194;-72
2023/06/22 04:47:06;;;;;;;8.33;6.33;;;;;;;17.88;100.00;102053.31;5027468;28;20217;-73
2023/06/22 04:49:37;;;;;;;6.63;6.00;;;;;;;17.97;100.00;102051.63;5027106;28;20202;-73
2023/06/22 04:52:05;;;;;;;7.40;6.50;;;;;;;18.03;100.00;102053.44;5022508;28;20233;-72
2023/06/22 04:54:34;;;;;;;6.87;6.17;;;;;;;18.12;100.00;102051.78;5021216;28;20282;-72
2023/06/22 04:57:01;;;;;;;8.57;6.17;;;;;;;18.16;100.00;102058.75;5035846;28;20221;-73
2023/06/22 04:59:29;;;;;;;9.27;6.30;;;;;;;18.20;100.00;102044.06;5046798;28;20195;-72
2023/06/22 05:01:59;;;;;;;8.70;6.70;;;;;;;18.19;100.00;102052.72;5030734;28;20220;-73
2023/06/22 05:04:27;;;;;;;10.57;7.57;;;;;;;18.27;100.00;102053.63;5025392;28;20250;-73
2023/06/22 05:06:53;;;;;;;10.07;6.83;;;;;;;18.38;100.00;102050.28;5022700;28;20186;-73
2023/06/22 05:09:19;;;;;;;8.10;7.00;;;;;;;18.51;100.00;102054.69;5024682;28;20616;-72
2023/06/22 05:11:45;;;;;;;8.07;6.90;;;;;;;18.64;100.00;102051.31;5032624;28;20236;-73
2023/06/22 05:14:10;;;;;;;8.60;7.27;;;;;;;18.72;100.00;102047.06;5031947;28;20641;-72
2023/06/22 05:16:37;;;;;;;7.43;6.43;;;;;;;18.82;100.00;102048.84;5028844;28;20213;-73
2023/06/22 05:19:03;;;;;;;9.27;6.77;;;;;;;18.90;100.00;102047.16;5022422;28;20202;-72
2023/06/22 05:21:30;;;;;;;7.13;6.43;;;;;;;18.97;100.00;102050.66;5022874;28;20210;-73
2023/06/22 05:23:59;;;;;;;10.77;7.13;;;;;;;18.99;100.00;102057.59;5025906;28;20202;-73
2023/06/22 05:26:26;;;;;;;7.80;6.67;;;;;;;19.02;100.00;102051.53;5035083;28;20219;-73
2023/06/22 05:28:51;;;;;;;9.30;6.40;;;;;;;19.02;100.00;102049.78;5032501;28;20221;-72
2023/06/22 05:31:19;;;;;;;7.47;6.30;;;;;;;19.02;100.00;102048.94;5029462;28;20281;-73
2023/06/22 05:33:45;;;;;;;8.77;6.33;;;;;;;19.05;100.00;102047.22;5027022;28;20189;-73
2023/06/22 05:36:12;;;;;;;9.47;6.47;;;;;;;19.12;100.00;102050.69;5019270;28;20226;-73
2023/06/22 05:38:38;;;;;;;8.60;6.30;;;;;;;19.21;100.00;102042.94;5020815;28;20679;-73
2023/06/22 05:41:04;;;;;;;7.73;5.87;;;;;;;19.34;100.00;102052.56;5031372;28;20214;-73
2023/06/22 05:43:30;;;;;;;9.63;5.20;;;;;;;19.51;100.00;102046.53;5031517;28;20191;-73
2023/06/22 05:45:55;;;;;;;6.00;5.17;;;;;;;19.68;100.00;102047.44;5041208;28;20265;-72
2023/06/22 05:48:21;;;;;;;6.77;4.93;;;;;;;19.88;100.00;102050.03;5040083;28;20846;-73
2023/06/22 05:50:46;;;;;;;8.73;4.70;;;;;;;19.87;100.00;102051.78;5029443;28;20237;-72
2023/06/22 05:53:12;;;;;;;6.53;4.60;;;;;;;19.87;100.00;102051.78;5018793;28;20219;-72
2023/06/22 05:55:37;;;;;;;7.10;4.53;;;;;;;19.89;100.00;102057.84;5029182;28;20287;-72
2023/06/22 05:58:05;;;;;;;7.20;4.93;;;;;;;20.03;100.00;102057.88;5026822;28;20290;-72
2023/06/22 06:00:31;;;;;;;7.73;4.47;;;;;;;20.16;100.00;102050.09;5013818;28;20199;-72
2023/06/22 06:03:03;;;;;;;7.47;4.63;;;;;;;20.30;100.00;102042.25;5027355;28;20576;-72
2023/06/22 06:05:33;;;;;;;5.93;4.40;;;;;;;20.38;100.00;102043.13;5011491;28;20226;-72
2023/06/22 06:08:00;;;;;;;7.63;4.87;;;;;;;20.44;100.00;102037.91;5012549;28;20567;-72
2023/06/22 06:10:25;;;;;;;7.10;4.47;;;;;;;20.53;100.00;102037.88;5022667;28;20649;-73
2023/06/22 06:12:51;;;;;;;5.43;4.13;;;;;;;20.75;100.00;102036.97;5019776;28;20203;-73
2023/06/22 06:15:17;;;;;;;5.67;4.20;;;;;;;20.81;100.00;102039.53;5018892;28;20221;-72
2023/06/22 06:17:47;;;;;;;6.70;4.77;;;;;;;20.68;100.00;102040.47;5017325;28;20230;-72
2023/06/22 06:20:12;;;;;;;6.70;4.50;;;;;;;20.94;100.00;102036.06;5011154;28;20286;-73
2023/06/22 06:22:37;;;;;;;9.43;4.83;;;;;;;21.12;100.00;102033.38;5020113;28;20272;-72
2023/06/22 06:25:04;;;;;;;5.57;4.53;;;;;;;20.99;100.00;102029.97;5014961;28;20242;-73
2023/06/22 06:27:30;;;;;;;6.20;4.40;;;;;;;20.89;100.00;102035.19;5018882;28;20609;-72
2023/06/22 06:29:55;;;;;;;8.30;4.30;;;;;;;20.89;100.00;102027.38;5017897;28;20207;-73
2023/06/22 06:32:21;;;;;;;6.67;4.50;;;;;;;21.15;100.00;102016.00;5015002;28;20226;-73
2023/06/22 06:34:46;;;;;;;5.47;3.77;;;;;;;21.37;100.00;102028.03;5016220;28;20680;-73
2023/06/22 06:37:11;;;;;;;4.87;4.20;;;;;;;21.46;100.00;102032.34;5012595;28;20195;-73
2023/06/22 06:39:37;;;;;;;6.10;3.87;;;;;;;21.61;100.00;102014.84;5015625;28;20332;-73
2023/06/22 06:42:02;;;;;;;5.20;3.93;;;;;;;21.92;100.00;102012.94;5016726;28;20187;-73
2023/06/22 06:44:28;;;;;;;7.07;3.53;;;;;;;22.03;100.00;102013.69;5026289;28;20849;-72
2023/06/22 06:46:54;;;;;;;4.20;3.80;;;;;;;22.18;100.00;102003.09;5014795;28;20218;-73
2023/06/22 06:49:19;;;;;;;5.23;3.93;;;;;;;22.28;100.00;102007.34;5006693;28;21086;-73
2023/06/22 06:51:45;;;;;;;6.63;4.03;;;;;;;22.43;100.00;101996.78;5014586;28;20227;-72
2023/06/22 06:54:10;;;;;;;4.80;4.10;;;;;;;22.54;100.00;101997.56;5026720;28;20202;-73
2023/06/22 06:56:36;;;;;;;4.70;3.53;;;;;;;22.74;100.00;101979.88;5022835;28;20306;-73
2023/06/22 06:59:01;;;;;;;6.93;3.60;;;;;;;22.74;100.00;101997.34;5029403;28;20269;-72
2023/06/22 07:01:27;;;;;;;4.83;3.67;;;;;;;22.96;100.00;101980.47;5018791;28;20261;-73
2023/06/22 07:03:53;;;;;;;5.80;3.47;;;;;;;23.15;100.00;101971.53;5017171;28;20655;-73
2023/06/22 07:06:19;;;;;;;8.13;3.73;;;;;;;23.18;100.00;101945.31;5015672;28;20683;-73
2023/06/22 07:08:44;;;;;;;4.20;3.17;;;;;;;23.37;100.00;101962.50;5020975;28;20277;-73
2023/06/22 07:11:09;;;;;;;5.37;3.47;;;;;;;23.49;100.00;101916.13;5018708;28;20637;-73
2023/06/22 07:13:35;;;;;;;3.95;3.53;;;;;;;23.68;100.00;101907.06;5021749;28;20230;-73
2023/06/22 07:16:00;;;;;;;4.13;3.55;;;;;;;23.82;100.00;101893.75;5017235;28;20735;-73
2023/06/22 07:18:26;;;;;;;7.20;3.40;;;;;;;23.92;100.00;101909.28;5017706;28;20203;-73
2023/06/22 07:20:52;;;;;;;3.42;3.13;;;;;;;24.13;100.00;101910.66;5016799;28;20290;-72
2023/06/22 07:23:18;;;;;;;4.68;3.47;;;;;;;24.05;100.00;101882.00;5019438;28;20191;-73
2023/06/22 07:25:43;;;;;;;8.80;3.22;;;;;;;24.36;100.00;101895.34;5023918;28;20745;-73
2023/06/22 07:28:08;;;;;;;6.43;3.17;;;;;;;24.58;100.00;101875.66;5018735;28;20199;-72
2023/06/22 07:30:34;;;;;;;4.90;3.08;;;;;;;24.61;100.00;101865.13;5020897;28;20195;-73
2023/06/22 07:33:03;;;;;;;5.80;3.08;;;;;;;24.80;100.00;101846.34;5018364;28;20754;-73
2023/06/22 07:35:32;;;;;;;5.18;2.90;;;;;;;24.79;100.00;101868.22;5016956;28;20305;-72
2023/06/22 07:37:58;;;;;;;3.85;2.80;;;;;;;24.64;100.00;101865.09;5020099;28;20285;-73
2023/06/22 07:40:23;;;;;;;4.28;2.92;;;;;;;24.37;100.00;101849.91;5020763;28;20282;-73
2023/06/22 07:42:51;;;;;;;4.93;2.83;;;;;;;24.32;100.00;101825.59;5024627;28;20194;-72
2023/06/22 07:45:17;;;;;;;5.40;3.10;;;;;;;24.43;100.00;101840.19;5017725;28;20246;-72
2023/06/22 07:47:42;;;;;;;3.28;2.80;;;;;;;24.48;100.00;101842.69;5013711;28;20265;-73
2023/06/22 07:50:08;;;;;;;4.78;3.08;;;;;;;24.48;100.00;101825.22;5018992;28;20209;-73
2023/06/22 07:52:34;;;;;;;4.75;3.00;;;;;;;24.79;100.00;101839.41;5017628;28;20215;-73
2023/06/22 07:54:59;;;;;;;3.65;2.83;;;;;;;24.89;100.00;101808.56;5026158;28;20228;-72
2023/06/22 07:57:33;;;;;;;3.45;2.47;;;;;;;25.45;100.00;101803.69;5015951;28;20194;-73
2023/06/22 08:00:00;;;;;;;3.78;2.72;;;;;;;25.56;92.85;101754.38;5027538;28;20233;-73
2023/06/22 08:02:26;;;;;;;6.43;2.90;;;;;;;25.36;91.84;101766.31;5027079;28;20187;-72
2023/06/22 08:04:52;;;;;;;4.22;3.00;;;;;;;25.17;95.35;101779.03;5027083;28;20657;-72
2023/06/22 08:07:19;;;;;;;3.95;2.92;;;;;;;25.21;98.53;101814.78;5023060;28;20289;-73
2023/06/22 08:09:48;;;;;;;3.42;3.13;;;;;;;25.18;94.15;101791.22;5027449;28;20304;-72
2023/06/22 08:12:14;;;;;;;4.70;2.90;;;;;;;25.40;91.34;101771.47;5026077;28;20612;-73
2023/06/22 08:14:43;;;;;;;4.45;2.88;;;;;;;25.57;94.35;101797.25;5024423;28;20212;-73
2023/06/22 08:17:09;;;;;;;5.38;2.80;;;;;;;25.74;94.17;101801.13;5026647;28;20198;-73
2023/06/22 08:19:34;;;;;;;5.40;2.72;;;;;;;25.60;90.33;101776.19;5027855;28;20260;-72
2023/06/22 08:21:59;;;;;;;7.53;3.20;;;;;;;25.22;91.59;101792.88;5021057;28;20187;-72
2023/06/22 08:24:25;;;;;;;6.30;4.18;;;;;;;25.16;94.16;101808.78;5029751;28;20225;-73
2023/06/22 08:26:52;;;;;;;3.30;2.55;;;;;;;25.22;94.22;101808.63;5028189;28;20198;-73
2023/06/22 08:29:17;;;;;;;3.28;2.88;;;;;;;25.15;90.33;101793.09;5035648;28;20214;-74
2023/06/22 08:31:43;;;;;;;2.90;2.40;;;;;;;25.24;87.15;101777.13;5025538;28;20221;-73
2023/06/22 08:34:08;;;;;;;3.20;2.60;;;;;;;25.14;81.81;101744.16;5027566;28;20198;-73
2023/06/22 08:36:41;;;;;;;3.50;2.63;;;;;;;25.24;91.12;101796.31;5028869;28;20260;-73
2023/06/22 08:39:08;;;;;;;3.90;2.10;;;;;;;25.38;90.54;101791.63;5029394;28;20221;-73
2023/06/22 08:41:33;;;;;;;4.78;2.97;;;;;;;25.62;88.31;101775.22;5028614;28;20198;-73
2023/06/22 08:43:59;;;;;;;3.58;2.15;;;;;;;26.11;87.98;101764.22;5031925;28;20194;-73
2023/06/22 08:46:30;;;;;;;3.38;2.63;;;;;;;26.55;85.55;101761.09;5027207;28;20826;-73
2023/06/22 08:48:57;;;;;;;4.85;2.83;;;;;;;26.80;78.53;101722.63;5022561;28;20573;-73
2023/06/22 08:51:22;;;;;;;2.70;2.50;;;;;;;26.95;76.14;101709.81;5029878;28;20588;-74
2023/06/22 08:53:47;;;;;;;5.30;2.72;;;;;;;27.01;72.56;101685.94;5029689;28;20206;-73
2023/06/22 08:56:13;;;;;;;5.38;3.10;;;;;;;27.16;76.13;101702.94;5029379;28;20218;-73
2023/06/22 08:58:38;;;;;;;3.65;2.60;;;;;;;27.46;84.30;101741.38;5026739;28;20201;-73
2023/06/22 09:01:04;;;;;;;6.95;2.55;;;;;;;27.36;69.71;101671.56;5027843;28;20204;-73
2023/06/22 09:03:29;;;;;;;5.53;3.05;;;;;;;27.47;72.44;101686.06;5027018;28;20562;-72
2023/06/22 09:05:55;;;;;;;3.55;2.65;;;;;;;27.70;75.42;101706.25;5029028;28;20312;-73
2023/06/22 09:08:21;;;;;;;3.75;2.50;;;;;;;27.90;74.89;101707.25;5024261;28;20206;-73
2023/06/22 09:10:46;;;;;;;2.70;2.40;;;;;;;27.90;70.05;101686.19;5025637;28;20193;-74
2023/06/22 09:13:12;;;;;;;6.72;2.90;;;;;;;27.90;62.75;101659.00;5030013;28;20221;-72
2023/06/22 09:15:37;;;;;;;5.85;3.53;;;;;;;27.93;62.61;101656.22;5030573;28;20221;-73
2023/06/22 09:18:03;;;;;;;4.38;3.50;;;;;;;28.09;58.54;101631.00;5027552;28;20213;-73
2023/06/22 09:20:28;;;;;;;4.90;3.53;;;;;;;27.85;59.65;101642.50;5028313;28;20205;-72
2023/06/22 09:22:54;;;;;;;3.53;2.90;;;;;;;28.09;60.70;101652.09;5028016;28;20627;-73
2023/06/22 09:25:20;;;;;;;4.18;3.20;;;;;;;28.26;59.44;101639.94;5028717;28;20225;-72
2023/06/22 09:27:46;;;;;;;5.03;2.90;;;;;;;28.47;60.15;101654.94;5026993;28;20193;-72
2023/06/22 09:30:12;;;;;;;4.57;2.72;;;;;;;28.75;60.77;101660.75;5028932;28;20229;-73
2023/06/22 09:32:37;;;;;;;3.85;3.20;;;;;;;28.62;56.60;101635.81;5026080;28;20316;-72
2023/06/22 09:35:06;;;;;;;4.57;2.90;;;;;;;28.54;54.53;101627.38;5028306;28;20683;-72
2023/06/22 09:37:31;;;;;;;3.97;3.38;;;;;;;28.52;55.58;101631.88;5029063;28;20248;-73
2023/06/22 09:39:56;;;;;;;4.00;2.95;;;;;;;28.84;56.66;101635.75;5028621;28;20284;-72
2023/06/22 09:42:22;;;;;;;3.47;3.17;;;;;;;29.02;58.22;101653.47;5030756;28;20196;-73
2023/06/22 09:44:47;;;;;;;4.93;2.90;;;;;;;29.11;59.33;101666.25;5023257;28;20234;-72
2023/06/22 09:47:13;;;;;;;3.42;3.10;;;;;;;29.25;56.97;101640.94;5021851;28;20209;-72
2023/06/22 09:49:38;;;;;;;4.57;3.80;;;;;;;29.40;57.72;101642.06;5020809;28;20198;-75
2023/06/22 09:52:04;;;;;;;4.35;3.15;;;;;;;29.43;56.80;101636.66;5025433;28;20225;-72
2023/06/22 09:54:30;;;;;;;4.45;3.30;;;;;;;29.76;57.74;101646.50;5023919;28;20194;-72
2023/06/22 09:56:55;;;;;;;3.53;3.10;;;;;;;29.70;55.79;101628.31;5026142;28;20671;-72
2023/06/22 09:59:20;;;;;;;4.90;2.78;;;;;;;29.96;55.23;101620.03;5024899;28;20202;-72
2023/06/22 10:01:46;;;;;;;3.88;3.28;;;;;;;29.72;56.03;101629.13;5022013;28;20193;-73
2023/06/22 10:04:11;;;;;;;5.88;3.05;;;;;;;30.07;56.80;101646.78;5028914;28;20202;-73
2023/06/22 10:06:40;;;;;;;5.05;3.92;;;;;;;29.71;52.90;101595.69;5027262;28;20225;-73
2023/06/22 10:09:07;;;;;;;6.75;3.60;;;;;;;29.82;55.73;101646.25;5026042;28;20202;-72
2023/06/22 10:11:34;;;;;;;3.72;3.40;;;;;;;30.03;57.00;101644.38;5019740;28;20201;-73
2023/06/22 10:14:01;;;;;;;4.20;3.80;;;;;;;29.97;52.74;101608.50;5025643;28;20356;-74
2023/06/22 10:16:33;;;;;;;4.30;3.63;;;;;;;29.49;52.62;101618.75;5019518;28;20229;-72
2023/06/22 10:18:58;;;;;;;3.38;2.95;;;;;;;29.70;57.71;101662.66;5022776;28;20202;-73
2023/06/22 10:21:24;;;;;;;5.20;3.45;;;;;;;29.82;52.14;101597.81;5020431;28;20198;-73
2023/06/22 10:23:49;;;;;;;5.22;3.33;;;;;;;30.13;55.93;101647.44;5022702;28;20194;-72
2023/06/22 10:26:15;;;;;;;5.78;3.70;;;;;;;30.28;54.76;101623.75;5030515;28;20229;-73
2023/06/22 10:28:40;;;;;;;3.90;3.45;;;;;;;30.55;54.76;101629.44;5024051;28;20194;-72
2023/06/22 10:31:06;;;;;;;4.22;3.80;;;;;;;30.68;52.92;101615.56;5024593;28;20257;-73
2023/06/22 10:33:31;;;;;;;4.88;4.18;;;;;;;30.72;51.20;101598.63;5023624;28;20229;-72
2023/06/22 10:35:56;;;;;;;4.45;3.55;;;;;;;30.97;53.01;101621.97;5029840;28;20297;-73
2023/06/22 10:38:22;;;;;;;3.80;3.40;;;;;;;30.81;51.78;101613.16;5030969;28;20198;-73
2023/06/22 10:40:47;;;;;;;3.92;3.55;;;;;;;30.88;52.06;101611.91;5024748;28;20190;-73
2023/06/22 10:43:13;;;;;;;5.30;3.78;;;;;;;31.01;50.88;101605.88;5030994;28;20839;-74
2023/06/22 10:45:39;;;;;;;5.32;4.03;;;;;;;30.81;50.12;101594.63;5023918;28;20225;-72
2023/06/22 10:48:04;;;;;;;6.80;4.15;;;;;;;30.62;49.02;101584.13;5026967;28;20186;-73
2023/06/22 10:50:30;;;;;;;4.95;3.97;;;;;;;31.03;49.16;101579.34;5024993;28;20735;-73
2023/06/22 10:52:55;;;;;;;4.03;3.60;;;;;;;31.47;48.58;101581.31;5027751;28;20301;-72
2023/06/22 10:55:21;;;;;;;4.78;4.10;;;;;;;31.41;51.13;101620.53;5029721;28;20222;-73
2023/06/22 10:57:46;;;;;;;6.05;3.90;;;;;;;31.82;49.14;101612.03;5029367;28;20281;-73
2023/06/22 11:00:14;;;;;;;4.38;3.70;;;;;;;32.11;48.86;101587.38;5027347;28;20672;-72
2023/06/22 11:02:39;;;;;;;4.43;3.60;;;;;;;32.14;46.91;101576.56;5029370;28;20232;-72
2023/06/22 11:05:05;;;;;;;4.82;3.97;;;;;;;31.82;46.93;101582.03;5028863;28;20214;-73
2023/06/22 11:07:31;;;;;;;5.00;3.85;;;;;;;31.47;47.74;101604.28;5029921;28;20245;-72
2023/06/22 11:09:56;;;;;;;4.07;3.67;;;;;;;31.75;48.17;101613.31;5029065;28;20269;-73
2023/06/22 11:12:22;;;;;;;5.32;4.45;;;;;;;31.38;47.62;101596.84;5023477;28;20829;-72
2023/06/22 11:14:50;;;;;;;4.30;3.90;;;;;;;31.42;46.80;101587.78;5026897;28;20265;-73
2023/06/22 11:17:15;;;;;;;5.00;4.22;;;;;;;31.04;48.13;101600.44;5020475;28;20194;-73